Time;durP1;ratioP1;P1;durP2;ratioP2;P2;SDS_P1;SDS_P2;PMS_P1;PMS_P2;Temp;Humidity;BMP_temperature;BMP_pressure;BME280_temperature;BME280_humidity;BME280_pressure;Samples;Min_cycle;Max_cycle;Signal;HPM_P1;HPM_P2
2023/01/09 00:00:11;;;;;;;623.10;589.13;;;7.90;99.90;;;;;;5024213;28;20482;-61
2023/01/09 00:02:39;;;;;;;608.97;575.75;;;7.80;99.90;;;;;;5023684;28;20463;-61
2023/01/09 00:05:09;;;;;;;619.90;586.05;;;7.80;99.90;;;;;;5025735;28;20395;-62
2023/01/09 00:07:35;;;;;;;613.22;579.75;;;7.80;99.90;;;;;;5026992;28;20478;-61
2023/01/09 00:10:00;;;;;;;634.37;599.33;;;7.70;99.90;;;;;;5026436;28;20641;-60
2023/01/09 00:12:26;;;;;;;639.13;603.43;;;7.60;99.90;;;;;;5030460;28;20387;-60
2023/01/09 00:14:52;;;;;;;656.70;619.88;;;7.60;99.90;;;;;;5030456;28;20399;-60
2023/01/09 00:17:17;;;;;;;631.80;596.80;;;7.60;99.90;;;;;;5028726;28;20444;-60
2023/01/09 00:19:43;;;;;;;638.67;603.17;;;7.60;99.90;;;;;;5026686;28;20497;-61
2023/01/09 00:22:08;;;;;;;637.53;602.33;;;7.60;99.90;;;;;;5026391;28;20644;-60
2023/01/09 00:24:35;;;;;;;641.17;605.83;;;7.60;99.90;;;;;;5026754;28;20834;-61
2023/01/09 00:27:01;;;;;;;632.05;596.92;;;7.60;99.90;;;;;;5027274;28;20945;-61
2023/01/09 00:29:27;;;;;;;640.92;605.13;;;7.60;99.90;;;;;;5028229;28;20489;-60
2023/01/09 00:31:52;;;;;;;620.42;586.25;;;7.60;99.90;;;;;;5028716;28;20410;-60
2023/01/09 00:34:18;;;;;;;632.93;598.03;;;7.60;99.90;;;;;;5027778;28;20666;-60
2023/01/09 00:36:44;;;;;;;630.47;595.53;;;7.60;99.90;;;;;;5026301;28;20714;-60
2023/01/09 00:39:09;;;;;;;633.53;598.28;;;7.60;99.90;;;;;;5026537;28;20699;-62
2023/01/09 00:41:43;;;;;;;627.40;592.70;;;7.60;99.90;;;;;;5027864;28;20418;-58
2023/01/09 00:44:34;;;;;;;625.88;591.05;;;7.50;99.90;;;;;;5028718;28;20425;-58
2023/01/09 00:47:09;;;;;;;638.00;602.47;;;7.50;99.90;;;;;;5021249;28;20398;-60
2023/01/09 00:49:35;;;;;;;634.43;599.03;;;7.40;99.90;;;;;;5028802;28;20686;-60
2023/01/09 00:52:03;;;;;;;628.10;593.30;;;7.40;99.90;;;;;;5030511;28;20383;-60
2023/01/09 00:54:30;;;;;;;629.83;594.95;;;7.40;99.90;;;;;;5028899;28;20567;-60
2023/01/09 00:56:56;;;;;;;638.03;602.30;;;7.40;99.90;;;;;;5026873;28;20499;-60
2023/01/09 00:59:22;;;;;;;638.08;602.53;;;7.40;99.90;;;;;;5026498;28;20489;-58
2023/01/09 01:01:47;;;;;;;624.28;589.85;;;7.40;99.90;;;;;;5027680;28;20434;-58
2023/01/09 01:09:41;;;;;;;640.80;605.07;;;7.40;99.90;;;;;;5026605;28;20464;-58
2023/01/09 01:12:07;;;;;;;641.23;605.37;;;7.40;99.90;;;;;;5024604;28;20786;-60
2023/01/09 01:14:35;;;;;;;644.20;607.90;;;7.40;99.90;;;;;;5028309;28;20706;-58
2023/01/09 01:17:01;;;;;;;642.13;605.97;;;7.40;99.90;;;;;;5027439;28;20794;-60
2023/01/09 01:19:26;;;;;;;639.25;603.60;;;7.40;99.90;;;;;;5026916;28;20697;-62
2023/01/09 01:21:52;;;;;;;633.50;598.08;;;7.40;99.90;;;;;;5024838;28;20395;-60
2023/01/09 01:24:18;;;;;;;648.47;612.10;;;7.40;99.90;;;;;;5025206;28;20410;-59
2023/01/09 01:26:44;;;;;;;634.22;598.55;;;7.40;99.90;;;;;;5028208;28;20422;-60
2023/01/09 01:29:10;;;;;;;631.25;596.13;;;7.40;99.90;;;;;;5027830;28;20383;-60
2023/01/09 01:31:35;;;;;;;629.87;594.70;;;7.40;99.90;;;;;;5029182;28;20406;-58
2023/01/09 01:34:01;;;;;;;633.53;598.28;;;7.30;99.90;;;;;;5029319;28;20393;-58
2023/01/09 01:36:27;;;;;;;628.40;593.40;;;7.30;99.90;;;;;;5028092;28;20683;-60
2023/01/09 01:38:52;;;;;;;628.40;593.57;;;7.40;99.90;;;;;;5030995;28;20628;-60
2023/01/09 01:41:28;;;;;;;621.23;587.00;;;7.30;99.90;;;;;;5033334;28;20496;-60
2023/01/09 01:43:55;;;;;;;627.08;592.35;;;7.40;99.90;;;;;;5033350;28;20498;-60
2023/01/09 01:46:21;;;;;;;628.92;593.72;;;7.40;99.90;;;;;;5034833;28;20810;-60
2023/01/09 01:48:52;;;;;;;626.63;591.75;;;7.40;99.90;;;;;;5034666;28;20398;-60
2023/01/09 01:51:20;;;;;;;615.38;581.28;;;7.40;99.90;;;;;;5034479;28;20451;-57
2023/01/09 01:53:51;;;;;;;631.00;596.07;;;7.40;99.90;;;;;;5033641;28;20394;-60
2023/01/09 01:56:31;;;;;;;636.30;600.78;;;7.40;99.90;;;;;;5031146;28;20660;-59
2023/01/09 01:59:07;;;;;;;626.63;591.63;;;7.30;99.90;;;;;;5030181;28;20386;-60
2023/01/09 02:01:33;;;;;;;629.58;594.67;;;7.30;99.90;;;;;;5029854;28;20687;-60
2023/01/09 02:04:01;;;;;;;636.70;601.13;;;7.30;99.90;;;;;;5029154;28;20406;-58
2023/01/09 02:06:28;;;;;;;628.87;594.07;;;7.40;99.90;;;;;;5032190;28;20511;-58
2023/01/09 02:08:54;;;;;;;627.80;592.80;;;7.40;99.90;;;;;;5034497;28;20397;-60
2023/01/09 02:11:20;;;;;;;623.33;588.95;;;7.40;99.90;;;;;;5033992;28;20460;-62
2023/01/09 02:13:46;;;;;;;619.40;585.58;;;7.40;99.90;;;;;;5035216;28;20387;-60
2023/01/09 02:16:50;;;;;;;614.55;580.90;;;7.40;99.90;;;;;;5035177;28;20406;-60
2023/01/09 02:19:54;;;;;;;627.10;592.30;;;7.40;99.90;;;;;;5028659;28;20826;-60
2023/01/09 02:22:56;;;;;;;630.70;596.00;;;7.40;99.90;;;;;;5035976;28;20371;-60
2023/01/09 02:25:54;;;;;;;628.38;593.60;;;7.50;99.90;;;;;;5035939;28;20550;-58
2023/01/09 02:28:39;;;;;;;633.60;598.28;;;7.50;99.90;;;;;;5033915;28;20383;-60
2023/01/09 02:31:04;;;;;;;610.17;576.63;;;7.50;99.90;;;;;;5035150;28;20826;-60
2023/01/09 02:33:55;;;;;;;626.22;591.72;;;7.50;99.90;;;;;;5034034;28;20391;-60
2023/01/09 02:36:41;;;;;;;629.37;594.60;;;7.50;99.90;;;;;;5032563;28;20383;-60
2023/01/09 02:39:14;;;;;;;628.78;593.75;;;7.60;99.90;;;;;;4999707;28;20641;-57
2023/01/09 02:41:52;;;;;;;634.45;599.42;;;7.60;99.90;;;;;;5031661;28;20434;-58
2023/01/09 02:44:26;;;;;;;627.08;592.65;;;7.60;99.90;;;;;;5030762;28;20814;-58
2023/01/09 02:47:23;;;;;;;634.83;599.88;;;7.60;99.90;;;;;;5033131;28;20803;-59
2023/01/09 02:49:55;;;;;;;619.50;585.60;;;7.60;99.90;;;;;;5033770;28;20383;-60
2023/01/09 02:52:50;;;;;;;624.63;589.92;;;7.60;99.90;;;;;;5034511;28;20391;-63
2023/01/09 02:55:39;;;;;;;636.47;601.17;;;7.60;99.90;;;;;;5035266;28;20621;-60
2023/01/09 02:58:20;;;;;;;634.20;599.03;;;7.60;99.90;;;;;;5035006;28;20386;-60
2023/01/09 03:00:59;;;;;;;632.30;597.22;;;7.60;99.90;;;;;;5034968;28;20442;-60
2023/01/09 03:03:43;;;;;;;623.85;589.40;;;7.60;99.90;;;;;;5035284;28;20403;-57
2023/01/09 03:06:37;;;;;;;624.63;590.15;;;7.60;99.90;;;;;;5034850;28;20418;-59
2023/01/09 03:09:21;;;;;;;622.83;588.65;;;7.50;99.90;;;;;;5034686;28;20465;-60
2023/01/09 03:11:54;;;;;;;621.40;587.20;;;7.50;99.90;;;;;;5032632;28;20475;-60
2023/01/09 03:14:24;;;;;;;621.83;587.70;;;7.50;99.90;;;;;;5035493;28;20465;-60
2023/01/09 03:16:55;;;;;;;616.33;582.45;;;7.50;99.90;;;;;;5035553;28;20415;-60
2023/01/09 03:19:24;;;;;;;608.13;574.72;;;7.50;99.90;;;;;;5036827;28;20399;-60
2023/01/09 03:21:50;;;;;;;625.08;590.58;;;7.50;99.90;;;;;;5036286;28;20389;-59
2023/01/09 03:24:16;;;;;;;610.65;576.90;;;7.50;99.90;;;;;;5034980;28;20823;-60
2023/01/09 03:26:42;;;;;;;615.85;582.22;;;7.50;99.90;;;;;;5034743;28;20405;-61
2023/01/09 03:29:09;;;;;;;615.70;581.97;;;7.50;99.90;;;;;;5034875;28;20379;-60
2023/01/09 03:31:34;;;;;;;614.05;580.25;;;7.40;99.90;;;;;;5031286;28;20467;-60
2023/01/09 03:34:00;;;;;;;623.83;589.22;;;7.40;99.90;;;;;;5031903;28;20720;-61
2023/01/09 03:36:26;;;;;;;644.07;608.23;;;7.50;99.90;;;;;;5032329;28;20391;-61
2023/01/09 03:38:51;;;;;;;646.37;609.73;;;7.50;99.90;;;;;;5032489;28;20721;-61
2023/01/09 03:41:18;;;;;;;656.90;619.60;;;7.50;99.90;;;;;;5033704;28;20672;-61
2023/01/09 03:43:44;;;;;;;638.08;602.35;;;7.60;99.90;;;;;;5033747;28;20399;-59
2023/01/09 03:46:10;;;;;;;646.38;609.97;;;7.60;99.90;;;;;;5032532;28;20405;-60
2023/01/09 03:48:36;;;;;;;638.43;602.37;;;7.60;99.90;;;;;;5033016;28;20820;-60
2023/01/09 03:51:01;;;;;;;653.20;616.27;;;7.70;99.90;;;;;;5032359;28;20706;-61
2023/01/09 03:53:28;;;;;;;638.40;602.57;;;7.70;99.90;;;;;;5032086;28;20479;-58
2023/01/09 03:55:55;;;;;;;642.55;606.58;;;7.70;99.90;;;;;;5031516;28;20406;-59
2023/01/09 03:58:22;;;;;;;638.90;603.07;;;7.60;99.90;;;;;;5033636;28;20415;-60
2023/01/09 04:00:49;;;;;;;642.07;605.80;;;7.60;99.90;;;;;;5032568;28;20464;-60
2023/01/09 04:03:16;;;;;;;662.88;624.97;;;7.60;99.90;;;;;;5032345;28;20909;-60
2023/01/09 04:05:44;;;;;;;647.40;610.92;;;7.70;99.90;;;;;;5034375;28;20442;-61
2023/01/09 04:08:09;;;;;;;646.78;610.30;;;7.70;99.90;;;;;;5032927;28;20379;-60
2023/01/09 04:10:35;;;;;;;644.47;607.97;;;7.60;99.90;;;;;;5036078;28;20391;-61
2023/01/09 04:13:01;;;;;;;659.37;622.17;;;7.60;99.90;;;;;;5033561;28;20807;-60
2023/01/09 04:15:26;;;;;;;647.42;610.88;;;7.60;99.90;;;;;;5033420;28;20387;-58
2023/01/09 04:17:52;;;;;;;651.60;614.60;;;7.70;99.90;;;;;;5033351;28;20406;-60
2023/01/09 04:20:18;;;;;;;643.95;607.72;;;7.60;99.90;;;;;;5033001;28;20414;-61
2023/01/09 04:22:44;;;;;;;646.10;609.37;;;7.70;99.90;;;;;;5032448;28;20775;-58
2023/01/09 04:25:10;;;;;;;657.67;620.47;;;7.70;99.90;;;;;;5033531;28;20946;-61
2023/01/09 04:27:35;;;;;;;653.17;616.30;;;7.80;99.90;;;;;;5031614;28;20881;-58
2023/01/09 04:30:01;;;;;;;657.13;619.78;;;7.80;99.90;;;;;;5032526;28;20486;-60
2023/01/09 04:32:27;;;;;;;651.65;614.58;;;7.80;99.90;;;;;;5033111;28;20407;-60
2023/01/09 04:34:54;;;;;;;671.70;633.25;;;7.80;99.90;;;;;;5031408;28;20664;-60
2023/01/09 04:37:20;;;;;;;652.33;615.43;;;7.80;99.90;;;;;;5029822;28;20418;-59
2023/01/09 04:39:46;;;;;;;657.72;620.58;;;7.80;99.90;;;;;;5029607;28;20387;-60
2023/01/09 04:42:12;;;;;;;659.00;621.47;;;7.80;99.90;;;;;;5028563;28;20866;-62
2023/01/09 04:44:38;;;;;;;666.07;628.30;;;7.80;99.90;;;;;;5028428;28;20442;-58
2023/01/09 04:47:03;;;;;;;668.67;630.33;;;7.80;99.90;;;;;;5029953;28;20488;-60
2023/01/09 04:49:29;;;;;;;667.15;629.20;;;7.80;99.90;;;;;;5031393;28;20478;-59
2023/01/09 04:51:55;;;;;;;661.47;623.85;;;7.80;99.90;;;;;;5030389;28;20805;-59
2023/01/09 04:54:21;;;;;;;666.22;628.25;;;7.80;99.90;;;;;;5031912;28;20696;-61
2023/01/09 04:56:46;;;;;;;671.25;632.92;;;7.80;99.90;;;;;;5031492;28;20675;-60
2023/01/09 04:59:12;;;;;;;677.13;638.13;;;7.80;99.90;;;;;;5033225;28;20529;-58
2023/01/09 05:01:38;;;;;;;679.57;640.37;;;7.90;99.90;;;;;;5031042;28;20846;-60
2023/01/09 05:04:04;;;;;;;687.03;647.50;;;7.90;99.90;;;;;;5030417;28;20519;-62
2023/01/09 05:06:30;;;;;;;697.30;656.92;;;7.90;99.90;;;;;;5030015;28;20445;-61
2023/01/09 05:08:57;;;;;;;695.35;654.90;;;7.90;99.90;;;;;;5031557;28;20390;-61
2023/01/09 05:11:24;;;;;;;702.63;661.10;;;7.90;99.90;;;;;;5030986;28;20651;-60
2023/01/09 05:13:50;;;;;;;697.42;656.72;;;7.90;99.90;;;;;;5028339;28;20415;-60
2023/01/09 05:16:16;;;;;;;689.55;649.65;;;7.80;99.90;;;;;;5027138;28;20395;-61
2023/01/09 05:18:41;;;;;;;705.42;664.40;;;7.80;99.90;;;;;;5027909;28;20382;-63
2023/01/09 05:21:07;;;;;;;683.60;644.23;;;7.80;99.90;;;;;;5027797;28;20486;-60
2023/01/09 05:23:33;;;;;;;670.73;632.10;;;7.80;99.90;;;;;;5026659;28;20398;-60
2023/01/09 05:25:59;;;;;;;668.77;630.53;;;7.80;99.90;;;;;;5026544;28;20418;-60
2023/01/09 05:28:24;;;;;;;647.80;611.42;;;7.90;99.90;;;;;;5026645;28;20383;-60
2023/01/09 05:30:50;;;;;;;654.42;617.55;;;7.90;99.90;;;;;;5026345;28;20453;-60
2023/01/09 05:33:15;;;;;;;660.78;623.22;;;7.90;99.90;;;;;;5027002;28;20488;-60
2023/01/09 05:35:41;;;;;;;660.57;622.80;;;7.90;99.90;;;;;;5026363;28;20444;-60
2023/01/09 05:38:07;;;;;;;656.73;619.17;;;7.90;99.90;;;;;;5023933;28;20470;-61
2023/01/09 05:40:32;;;;;;;648.60;612.00;;;7.90;99.90;;;;;;5020711;28;20395;-59
2023/01/09 05:42:58;;;;;;;661.83;623.83;;;7.90;99.90;;;;;;5021403;28;20427;-60
2023/01/09 05:45:25;;;;;;;693.22;652.83;;;7.90;99.90;;;;;;5024479;28;20411;-60
2023/01/09 05:47:51;;;;;;;695.58;655.03;;;7.90;99.90;;;;;;5026407;28;20862;-61
2023/01/09 05:50:17;;;;;;;700.15;659.08;;;7.90;99.90;;;;;;5026537;28;20471;-61
2023/01/09 05:52:43;;;;;;;724.85;681.85;;;7.90;99.90;;;;;;5025674;28;20391;-60
2023/01/09 05:55:09;;;;;;;760.80;713.63;;;7.90;99.90;;;;;;5025771;28;20386;-61
2023/01/09 05:57:35;;;;;;;758.05;710.95;;;7.90;99.90;;;;;;5026059;28;20775;-60
2023/01/09 06:00:01;;;;;;;768.40;720.83;;;7.90;99.90;;;;;;5024446;28;20396;-60
2023/01/09 06:02:27;;;;;;;771.15;722.78;;;7.80;99.90;;;;;;5025157;28;20873;-59
2023/01/09 06:04:53;;;;;;;760.23;712.77;;;7.90;99.90;;;;;;5024192;28;20499;-57
2023/01/09 06:07:18;;;;;;;772.45;723.83;;;7.90;99.90;;;;;;5024646;28;20445;-59
2023/01/09 06:09:44;;;;;;;778.00;729.23;;;7.90;99.90;;;;;;5023639;28;20391;-59
2023/01/09 06:12:09;;;;;;;773.37;724.67;;;7.90;99.90;;;;;;5022349;28;20387;-60
2023/01/09 06:14:35;;;;;;;764.80;716.90;;;7.80;99.90;;;;;;5024354;28;20445;-60
2023/01/09 06:17:01;;;;;;;777.88;728.80;;;7.80;99.90;;;;;;5020057;28;20403;-60
2023/01/09 06:19:27;;;;;;;776.67;727.85;;;7.90;99.90;;;;;;5020480;28;20375;-61
2023/01/09 06:21:52;;;;;;;769.35;721.30;;;7.90;99.90;;;;;;5020564;28;20767;-60
2023/01/09 06:24:18;;;;;;;802.40;750.97;;;7.80;99.90;;;;;;5019884;28;20742;-60
2023/01/09 06:26:44;;;;;;;763.13;715.20;;;7.90;99.90;;;;;;5022392;28;20387;-59
2023/01/09 06:29:09;;;;;;;780.97;731.63;;;7.80;99.90;;;;;;5024000;28;20402;-60
2023/01/09 06:31:35;;;;;;;794.07;743.00;;;7.70;99.90;;;;;;5023986;28;21007;-61
2023/01/09 06:34:01;;;;;;;784.65;734.88;;;7.70;99.90;;;;;;5023899;28;20394;-60
2023/01/09 06:36:26;;;;;;;778.35;729.42;;;7.70;99.90;;;;;;5024867;28;20383;-58
2023/01/09 06:38:52;;;;;;;811.83;759.53;;;7.70;99.90;;;;;;5025068;28;20732;-61
2023/01/09 06:41:17;;;;;;;805.10;753.27;;;7.70;99.90;;;;;;5022752;28;20398;-60
2023/01/09 06:43:43;;;;;;;816.50;763.65;;;7.70;99.90;;;;;;5023916;28;20383;-58
2023/01/09 06:46:08;;;;;;;808.60;756.15;;;7.80;99.90;;;;;;5022465;28;20446;-63
2023/01/09 06:48:34;;;;;;;819.93;766.67;;;7.70;99.90;;;;;;5025126;28;20648;-61
2023/01/09 06:51:00;;;;;;;828.43;774.83;;;7.70;99.90;;;;;;5023809;28;20648;-59
2023/01/09 06:53:25;;;;;;;824.70;771.25;;;7.60;99.90;;;;;;5023079;28;20445;-60
2023/01/09 06:55:51;;;;;;;823.55;770.55;;;7.70;99.90;;;;;;5023785;28;20402;-60
2023/01/09 06:58:17;;;;;;;817.90;764.67;;;7.70;99.90;;;;;;5024184;28;20379;-65
2023/01/09 07:00:42;;;;;;;832.47;778.80;;;7.80;99.90;;;;;;5022760;28;20558;-60
2023/01/09 07:03:09;;;;;;;814.07;761.00;;;7.70;99.90;;;;;;5023172;28;20394;-60
2023/01/09 07:05:40;;;;;;;831.45;777.63;;;7.70;99.90;;;;;;5022586;28;20910;-60
2023/01/09 07:08:07;;;;;;;844.20;788.95;;;7.60;99.90;;;;;;5024258;28;20690;-66
2023/01/09 07:10:32;;;;;;;828.60;774.42;;;7.60;99.90;;;;;;5022867;28;20610;-57
2023/01/09 07:12:58;;;;;;;835.30;781.13;;;7.60;99.90;;;;;;5019954;28;20644;-60
2023/01/09 07:15:23;;;;;;;817.20;764.17;;;7.60;99.90;;;;;;5019039;28;20399;-60
2023/01/09 07:17:52;;;;;;;857.37;800.70;;;7.70;99.90;;;;;;5017531;28;20913;-61
2023/01/09 07:20:19;;;;;;;872.42;814.58;;;7.60;99.90;;;;;;5018219;28;20395;-61
2023/01/09 07:22:45;;;;;;;858.95;802.75;;;7.60;99.90;;;;;;5017730;28;20398;-60
2023/01/09 07:25:11;;;;;;;876.63;818.10;;;7.60;99.90;;;;;;5018897;28;20660;-61
2023/01/09 07:27:36;;;;;;;871.73;813.60;;;7.60;99.90;;;;;;5017377;28;20379;-61
2023/01/09 07:30:03;;;;;;;857.30;801.03;;;7.70;99.90;;;;;;5017105;28;20456;-59
2023/01/09 07:32:29;;;;;;;834.22;780.15;;;7.70;99.90;;;;;;5019904;28;20940;-58
2023/01/09 07:34:54;;;;;;;823.73;770.83;;;7.70;99.90;;;;;;5019214;28;20502;-59
2023/01/09 07:37:20;;;;;;;810.50;759.30;;;7.70;99.90;;;;;;5019609;28;20779;-60
2023/01/09 07:39:45;;;;;;;821.17;768.47;;;7.70;99.90;;;;;;5020150;28;20379;-59
2023/01/09 07:42:11;;;;;;;799.63;749.07;;;7.70;99.90;;;;;;5022112;28;20640;-60
2023/01/09 07:44:37;;;;;;;801.05;749.92;;;7.60;99.90;;;;;;5022096;28;20419;-60
2023/01/09 07:47:03;;;;;;;872.03;814.92;;;7.60;99.90;;;;;;5020075;28;20679;-59
2023/01/09 07:49:28;;;;;;;867.10;810.65;;;7.60;99.90;;;;;;5019967;28;20667;-58
2023/01/09 07:51:54;;;;;;;858.77;802.70;;;7.60;99.90;;;;;;5014458;28;20460;-60
2023/01/09 07:54:20;;;;;;;863.40;807.25;;;7.60;99.90;;;;;;5014627;28;20714;-61
2023/01/09 07:56:46;;;;;;;853.17;797.77;;;7.60;99.90;;;;;;5016203;28;20390;-61
2023/01/09 07:59:11;;;;;;;843.50;788.33;;;7.50;99.90;;;;;;5011301;28;20410;-59
2023/01/09 08:01:37;;;;;;;900.27;840.43;;;7.50;99.90;;;;;;5010887;28;20446;-61
2023/01/09 08:04:03;;;;;;;929.17;866.93;;;7.50;99.90;;;;;;5012423;28;20623;-60
2023/01/09 08:06:30;;;;;;;916.72;855.15;;;7.60;99.90;;;;;;5014958;28;20391;-61
2023/01/09 08:08:56;;;;;;;928.97;865.90;;;7.50;99.90;;;;;;5017299;28;20383;-61
2023/01/09 08:11:22;;;;;;;905.55;845.10;;;7.60;99.90;;;;;;5017154;28;20389;-60
2023/01/09 08:13:51;;;;;;;892.22;832.83;;;7.60;99.90;;;;;;5023345;28;20433;-61
2023/01/09 08:16:16;;;;;;;893.55;834.22;;;7.50;99.90;;;;;;5025601;28;20905;-61
2023/01/09 08:18:42;;;;;;;884.35;826.22;;;7.50;99.90;;;;;;5026625;28;21013;-60
2023/01/09 08:21:10;;;;;;;809.63;757.78;;;7.60;99.90;;;;;;5026250;28;20386;-60
2023/01/09 08:23:36;;;;;;;799.53;748.17;;;7.60;99.90;;;;;;5017508;28;20841;-61
2023/01/09 08:26:02;;;;;;;756.43;709.13;;;7.50;99.90;;;;;;5013608;28;20646;-61
2023/01/09 08:28:28;;;;;;;746.83;700.43;;;7.60;99.90;;;;;;5013518;28;20383;-61
2023/01/09 08:30:54;;;;;;;720.77;676.13;;;7.60;99.90;;;;;;5010370;28;20490;-61
2023/01/09 08:33:20;;;;;;;726.33;682.00;;;7.60;99.90;;;;;;5011435;28;20634;-61
2023/01/09 08:35:45;;;;;;;708.73;665.87;;;7.60;99.90;;;;;;5014462;28;20646;-63
2023/01/09 08:38:11;;;;;;;679.97;639.33;;;7.60;99.90;;;;;;5016110;28;20640;-61
2023/01/09 08:40:37;;;;;;;697.38;655.10;;;7.60;99.90;;;;;;5011619;28;20669;-60
2023/01/09 08:48:31;;;;;;;710.38;666.95;;;7.60;99.90;;;;;;5012868;28;20379;-61
2023/01/09 08:50:57;;;;;;;691.28;649.55;;;7.70;99.90;;;;;;5011671;28;20789;-61
2023/01/09 08:53:23;;;;;;;702.65;659.85;;;7.60;99.90;;;;;;5014273;28;20502;-60
2023/01/09 08:55:49;;;;;;;685.00;643.88;;;7.60;99.90;;;;;;5012466;28;20858;-62
2023/01/09 08:58:14;;;;;;;704.03;660.88;;;7.50;99.90;;;;;;5013318;28;20391;-61
2023/01/09 09:00:40;;;;;;;713.85;669.58;;;7.40;99.90;;;;;;5012929;28;20422;-56
2023/01/09 09:03:06;;;;;;;700.35;657.63;;;7.40;99.90;;;;;;5010209;28;20391;-60
2023/01/09 09:05:32;;;;;;;713.33;669.80;;;7.50;99.90;;;;;;5005207;28;20418;-60
2023/01/09 09:07:58;;;;;;;713.55;669.30;;;7.50;99.90;;;;;;5004709;28;20546;-60
2023/01/09 09:10:27;;;;;;;715.00;670.90;;;7.50;99.90;;;;;;5012157;28;20404;-60
2023/01/09 09:12:55;;;;;;;703.58;660.40;;;7.60;99.90;;;;;;5018017;28;20470;-61
2023/01/09 09:15:25;;;;;;;678.47;637.50;;;7.60;99.90;;;;;;5017805;28;20486;-61
2023/01/09 09:17:57;;;;;;;630.17;593.70;;;7.70;99.90;;;;;;5016166;28;20387;-60
2023/01/09 09:20:28;;;;;;;622.47;586.90;;;7.70;99.90;;;;;;5019220;28;20386;-60
2023/01/09 09:22:54;;;;;;;612.22;577.08;;;7.80;99.90;;;;;;5021986;28;20394;-59
2023/01/09 09:25:20;;;;;;;629.90;593.78;;;7.80;99.90;;;;;;5022406;28;20705;-60
2023/01/09 09:27:46;;;;;;;626.22;590.10;;;7.80;99.90;;;;;;5021565;28;20484;-60
2023/01/09 09:30:14;;;;;;;636.10;599.03;;;7.80;99.90;;;;;;5021717;28;20434;-59
2023/01/09 09:32:40;;;;;;;620.95;585.42;;;7.70;99.90;;;;;;5021569;28;20391;-60
2023/01/09 09:35:06;;;;;;;643.50;605.33;;;7.70;99.90;;;;;;5022823;28;20391;-61
2023/01/09 09:37:32;;;;;;;647.90;609.83;;;7.60;99.90;;;;;;5021820;28;20840;-61
2023/01/09 09:39:58;;;;;;;666.08;626.45;;;7.50;99.90;;;;;;5021419;28;21063;-60
2023/01/09 09:46:02;;;;;;;716.47;672.22;;;7.40;99.90;;;;;;5021222;28;20458;-62
2023/01/09 09:48:42;;;;;;;709.63;665.80;;;7.40;99.90;;;;;;5019389;28;20386;-61
2023/01/09 09:51:32;;;;;;;710.08;667.17;;;7.30;99.90;;;;;;5022522;28;20418;-56
2023/01/09 09:54:23;;;;;;;725.67;680.97;;;7.30;99.90;;;;;;5024459;28;20624;-57
2023/01/09 09:56:59;;;;;;;705.42;663.10;;;7.50;99.90;;;;;;5023392;28;20407;-61
2023/01/09 09:59:35;;;;;;;729.70;683.65;;;7.50;99.90;;;;;;5020608;28;20528;-62
2023/01/09 10:02:26;;;;;;;735.40;688.27;;;7.50;99.90;;;;;;5020674;28;20482;-61
2023/01/09 10:05:17;;;;;;;722.17;676.83;;;7.40;99.90;;;;;;5025062;28;21077;-61
2023/01/09 10:07:48;;;;;;;732.30;686.38;;;7.40;99.90;;;;;;5022445;28;20382;-61
2023/01/09 10:10:42;;;;;;;731.97;685.83;;;7.30;99.90;;;;;;5025907;28;20418;-62
2023/01/09 10:16:09;;;;;;;727.90;683.00;;;7.20;99.90;;;;;;5054197;28;20402;-61
2023/01/09 10:19:06;;;;;;;706.83;663.33;;;7.10;99.90;;;;;;5023881;28;20956;-59
2023/01/09 10:21:59;;;;;;;707.58;664.08;;;7.20;99.90;;;;;;5028216;28;20410;-61
2023/01/09 10:24:48;;;;;;;675.08;634.60;;;7.30;99.90;;;;;;5028264;28;20417;-61
2023/01/09 10:27:42;;;;;;;672.17;631.72;;;7.20;99.90;;;;;;5009485;28;20387;-61
2023/01/09 10:30:31;;;;;;;705.70;662.42;;;7.10;99.90;;;;;;5024911;28;20415;-61
2023/01/09 10:33:34;;;;;;;718.40;673.90;;;7.10;99.90;;;;;;5026834;28;20478;-61
2023/01/09 10:36:21;;;;;;;701.70;658.33;;;7.20;99.90;;;;;;5026373;28;20479;-61
2023/01/09 10:38:51;;;;;;;700.30;657.25;;;7.20;99.90;;;;;;5024413;28;20390;-61
2023/01/09 10:41:48;;;;;;;737.80;690.00;;;7.10;99.90;;;;;;5024837;28;20426;-61
2023/01/09 10:44:25;;;;;;;690.75;648.50;;;7.20;99.90;;;;;;5027551;28;20398;-62
2023/01/09 10:46:56;;;;;;;681.58;640.30;;;7.20;99.90;;;;;;5028392;28;20403;-61
2023/01/09 10:49:23;;;;;;;705.53;661.83;;;7.20;99.90;;;;;;5028124;28;20390;-60
2023/01/09 10:51:59;;;;;;;692.35;649.80;;;7.20;99.90;;;;;;5028939;28;20981;-61
2023/01/09 10:54:27;;;;;;;683.58;642.28;;;7.20;99.90;;;;;;5029769;28;20422;-60
2023/01/09 10:56:57;;;;;;;673.85;633.67;;;7.20;99.90;;;;;;5027731;28;20375;-61
2023/01/09 10:59:25;;;;;;;672.45;631.95;;;7.30;99.90;;;;;;5026311;28;20383;-61
2023/01/09 11:01:52;;;;;;;656.30;617.40;;;7.30;99.90;;;;;;5024066;28;20407;-60
2023/01/09 11:04:22;;;;;;;644.60;606.53;;;7.30;99.90;;;;;;5023860;28;20387;-60
2023/01/09 11:06:55;;;;;;;632.97;596.65;;;7.20;99.90;;;;;;5022578;28;20975;-60
2023/01/09 11:09:21;;;;;;;601.47;567.20;;;7.30;99.90;;;;;;5024429;28;20383;-62
2023/01/09 11:11:47;;;;;;;597.90;564.58;;;7.20;99.90;;;;;;5020130;28;20500;-61
2023/01/09 11:14:26;;;;;;;585.78;553.30;;;7.10;99.90;;;;;;5020351;28;20387;-60
2023/01/09 11:16:55;;;;;;;594.20;561.22;;;7.10;99.90;;;;;;5020617;28;20406;-61
2023/01/09 11:19:22;;;;;;;598.38;564.92;;;7.20;99.90;;;;;;5020439;28;20386;-61
2023/01/09 11:21:48;;;;;;;565.33;534.03;;;7.30;99.90;;;;;;5016797;28;20437;-61
2023/01/09 11:24:20;;;;;;;568.03;536.87;;;7.50;99.90;;;;;;5019499;28;20391;-62
2023/01/09 11:27:12;;;;;;;568.60;537.43;;;7.60;99.90;;;;;;5021609;28;20734;-61
2023/01/09 11:29:40;;;;;;;571.42;539.28;;;7.70;99.90;;;;;;5023206;28;20528;-62
2023/01/09 11:32:19;;;;;;;588.90;555.70;;;7.70;99.90;;;;;;5023757;28;20519;-62
2023/01/09 11:34:45;;;;;;;566.25;534.50;;;7.70;99.90;;;;;;5023135;28;20834;-62
2023/01/09 11:37:17;;;;;;;565.35;534.00;;;7.80;99.90;;;;;;5024264;28;20401;-59
2023/01/09 11:39:46;;;;;;;549.28;519.55;;;7.90;99.90;;;;;;5021581;28;20453;-61
2023/01/09 11:45:14;;;;;;;490.50;464.90;;;8.20;99.90;;;;;;5023344;28;20414;-61
2023/01/09 11:47:40;;;;;;;469.70;445.65;;;8.30;99.90;;;;;;5020858;28;20400;-61
2023/01/09 11:50:17;;;;;;;452.73;429.17;;;8.40;99.90;;;;;;5022833;28;20676;-61
2023/01/09 11:52:44;;;;;;;461.52;437.50;;;8.40;99.90;;;;;;5021642;28;20782;-62
2023/01/09 11:55:14;;;;;;;466.38;442.05;;;8.40;99.90;;;;;;5024289;28;20391;-61
2023/01/09 11:57:41;;;;;;;466.52;442.48;;;8.30;99.90;;;;;;5023298;28;20482;-61
2023/01/09 12:00:26;;;;;;;470.55;446.17;;;8.20;99.90;;;;;;5025209;28;20443;-60
2023/01/09 12:03:22;;;;;;;487.23;461.48;;;8.10;99.90;;;;;;5024325;28;20391;-62
2023/01/09 12:06:02;;;;;;;495.40;469.07;;;8.10;99.90;;;;;;5024498;28;20443;-61
2023/01/09 12:08:59;;;;;;;542.13;513.03;;;8.10;99.90;;;;;;5025217;28;20441;-62
2023/01/09 12:11:37;;;;;;;538.22;509.45;;;8.10;99.90;;;;;;5023998;28;20390;-61
2023/01/09 12:14:54;;;;;;;559.65;529.25;;;8.00;99.90;;;;;;5022237;28;20423;-60
2023/01/09 12:17:31;;;;;;;574.53;542.97;;;7.90;99.90;;;;;;4989338;28;20529;-61
2023/01/09 12:20:37;;;;;;;570.33;539.38;;;7.80;99.90;;;;;;5023001;28;20422;-61
2023/01/09 12:23:31;;;;;;;549.95;520.00;;;7.80;99.90;;;;;;5020583;28;20383;-61
2023/01/09 12:26:23;;;;;;;582.17;550.17;;;7.80;99.90;;;;;;5021015;28;20414;-61
2023/01/09 12:29:14;;;;;;;589.50;557.22;;;7.80;99.90;;;;;;5020208;28;20393;-61
2023/01/09 12:31:52;;;;;;;604.88;570.85;;;7.90;99.90;;;;;;5018059;28;20398;-60
2023/01/09 12:34:24;;;;;;;595.05;562.00;;;7.90;99.90;;;;;;5022064;28;20375;-63
2023/01/09 12:37:04;;;;;;;603.25;569.15;;;8.00;99.90;;;;;;5021797;28;20889;-60
2023/01/09 12:39:55;;;;;;;592.67;559.73;;;8.00;99.90;;;;;;5022533;28;20388;-59
2023/01/09 12:43:02;;;;;;;625.40;589.58;;;7.90;99.90;;;;;;5022383;28;20438;-60
2023/01/09 12:45:56;;;;;;;640.47;603.35;;;7.90;99.90;;;;;;5015787;28;20505;-58
2023/01/09 12:48:45;;;;;;;606.38;572.22;;;8.00;99.90;;;;;;5022467;28;20394;-60
2023/01/09 12:51:23;;;;;;;645.72;608.45;;;8.00;99.90;;;;;;5022107;28;20873;-61
2023/01/09 12:53:58;;;;;;;666.90;627.23;;;8.00;99.90;;;;;;5022691;28;20383;-59
2023/01/09 12:56:47;;;;;;;649.05;611.28;;;8.10;99.90;;;;;;5024126;28;20980;-60